Time;durP1;ratioP1;P1;durP2;ratioP2;P2;SDS_P1;SDS_P2;PMS_P1;PMS_P2;Temp;Humidity;BMP_temperature;BMP_pressure;BME280_temperature;BME280_humidity;BME280_pressure;Samples;Min_cycle;Max_cycle;Signal;HPM_P1;HPM_P2
2023/12/02 08:02:09;;;;;;;3.78;2.75;;;;;;;;;;10517177;28;20037;-82
2023/12/02 08:07:11;;;;;;;6.95;4.25;;;;;;;;;;10493956;28;20385;-80
2023/12/02 08:12:12;;;;;;;5.95;4.65;;;;;;;;;;10496269;28;20032;-80
2023/12/02 08:17:13;;;;;;;7.47;5.43;;;;;;;;;;10501713;28;20056;-78
2023/12/02 08:22:14;;;;;;;5.80;3.90;;;;;;;;;;10514547;28;20024;-79
2023/12/02 08:27:15;;;;;;;6.32;4.22;;;;;;;;;;10496376;28;20028;-79
2023/12/02 08:32:16;;;;;;;6.32;4.05;;;;;;;;;;10514225;28;20074;-78
2023/12/02 08:37:17;;;;;;;5.40;3.63;;;;;;;;;;10501770;28;20055;-78
2023/12/02 08:42:18;;;;;;;6.05;4.05;;;;;;;;;;10495592;28;20467;-79
2023/12/02 08:47:19;;;;;;;5.55;3.83;;;;;;;;;;10496185;28;20024;-79
2023/12/02 08:52:20;;;;;;;7.40;3.42;;;;;;;;;;10493745;28;20024;-78
2023/12/02 08:57:21;;;;;;;8.40;3.85;;;;;;;;;;10513265;28;20016;-78
2023/12/02 09:02:22;;;;;;;6.63;3.80;;;;;;;;;;10494692;28;20422;-77
2023/12/02 09:07:24;;;;;;;;;;;;;;;;;;10491461;28;20123;-77
2023/12/02 09:12:25;;;;;;;5.85;3.72;;;;;;;;;;10492966;28;19908;-77
2023/12/02 09:17:49;;;;;;;7.78;3.40;;;;;;;;;;10490992;28;20115;-78
2023/12/02 09:22:50;;;;;;;9.50;4.28;;;;;;;;;;10484360;28;20040;-79
2023/12/02 09:28:03;;;;;;;7.22;3.95;;;;;;;;;;10490116;28;20032;-79
2023/12/02 09:33:04;;;;;;;6.68;3.80;;;;;;;;;;10507840;28;20063;-78
2023/12/02 09:38:06;;;;;;;7.50;4.45;;;;;;;;;;10490388;28;20040;-78
2023/12/02 09:43:21;;;;;;;4.90;3.08;;;;;;;;;;10491215;28;20044;-78
2023/12/02 09:48:27;;;;;;;7.05;3.35;;;;;;;;;;10509630;28;20108;-79
2023/12/02 09:53:28;;;;;;;6.93;3.97;;;;;;;;;;10490956;28;20032;-78
2023/12/02 09:58:43;;;;;;;7.60;3.15;;;;;;;;;;10490940;28;20033;-78
2023/12/02 10:04:04;;;;;;;10.40;7.28;;;;;;;;;;10489753;28;20387;-79
2023/12/02 10:09:25;;;;;;;8.30;4.60;;;;;;;;;;10507011;28;20074;-79
2023/12/02 10:14:28;;;;;;;7.50;5.20;;;;;;;;;;10507071;28;20020;-79
2023/12/02 10:19:36;;;;;;;8.55;4.28;;;;;;;;;;10488458;28;20029;-79
2023/12/02 10:24:43;;;;;;;6.82;4.43;;;;;;;;;;10506562;28;20035;-78
2023/12/02 10:29:50;;;;;;;5.50;3.80;;;;;;;;;;10488893;28;20028;-78
2023/12/02 10:34:51;;;;;;;7.20;4.78;;;;;;;;;;10489118;28;20373;-79
2023/12/02 10:39:54;;;;;;;7.63;5.28;;;;;;;;;;10488566;28;20218;-77
2023/12/02 10:45:05;;;;;;;7.13;5.03;;;;;;;;;;10488907;28;20063;-78
2023/12/02 10:50:09;;;;;;;7.20;5.30;;;;;;;;;;10489643;28;20036;-79
2023/12/02 10:55:11;;;;;;;8.20;4.35;;;;;;;;;;10488334;28;20442;-78
2023/12/02 11:00:13;;;;;;;5.55;4.60;;;;;;;;;;10489595;28;20028;-77
2023/12/02 11:05:14;;;;;;;8.10;3.88;;;;;;;;;;10487905;28;20037;-79
2023/12/02 11:10:19;;;;;;;7.03;4.65;;;;;;;;;;10488180;28;20044;-79
2023/12/02 11:15:24;;;;;;;6.65;4.68;;;;;;;;;;10508872;28;20036;-79
2023/12/02 11:20:42;;;;;;;6.47;4.88;;;;;;;;;;10509542;28;20492;-80
2023/12/02 11:26:07;;;;;;;6.40;4.50;;;;;;;;;;10491201;28;20048;-80
2023/12/02 11:31:16;;;;;;;8.45;6.05;;;;;;;;;;10495512;28;20028;-78
2023/12/02 11:36:22;;;;;;;6.43;5.45;;;;;;;;;;10499612;28;20056;-79
2023/12/02 11:41:40;;;;;;;5.50;3.72;;;;;;;;;;10497024;28;20047;-81
2023/12/02 11:46:47;;;;;;;8.95;5.07;;;;;;;;;;10495439;28;20028;-78
2023/12/02 11:51:57;;;;;;;5.75;4.35;;;;;;;;;;10494773;28;20024;-79
2023/12/02 11:57:02;;;;;;;7.75;5.55;;;;;;;;;;10512511;28;20021;-79
2023/12/02 12:02:16;;;;;;;6.55;5.43;;;;;;;;;;10512970;28;20457;-78
2023/12/02 12:07:36;;;;;;;5.88;3.95;;;;;;;;;;10511769;28;20029;-78
2023/12/02 12:12:39;;;;;;;4.60;3.88;;;;;;;;;;10493291;28;20029;-79
2023/12/02 12:17:40;;;;;;;6.57;5.03;;;;;;;;;;10492858;28;20123;-79
2023/12/02 12:22:41;;;;;;;7.13;5.15;;;;;;;;;;10492350;28;20040;-79
2023/12/02 12:27:43;;;;;;;6.90;4.88;;;;;;;;;;10493572;28;20098;-79
2023/12/02 12:32:44;;;;;;;4.97;3.72;;;;;;;;;;10491063;28;20471;-79
2023/12/02 12:37:45;;;;;;;;;;;;;;;;;;10492978;28;20040;-80
2023/12/02 12:42:47;;;;;;;7.47;5.47;;;;;;;;;;10494192;28;20371;-80
2023/12/02 12:47:48;;;;;;;7.85;5.50;;;;;;;;;;10494168;28;20037;-78
2023/12/02 12:52:52;;;;;;;8.05;5.50;;;;;;;;;;10437910;23;20373;-82
2023/12/02 12:57:58;;;;;;;9.80;6.43;;;;;;;;;;10414648;28;20466;-83
2023/12/02 13:03:10;;;;;;;8.60;6.10;;;;;;;;;;10416579;28;20036;-83
2023/12/02 13:08:14;;;;;;;7.38;4.57;;;;;;;;;;10414732;28;20040;-83
2023/12/02 13:13:17;;;;;;;7.43;5.32;;;;;;;;;;10431098;28;20025;-83
2023/12/02 13:18:19;;;;;;;8.18;5.20;;;;;;;;;;10416411;28;20033;-82
2023/12/02 13:23:21;;;;;;;5.88;4.22;;;;;;;;;;10414494;28;20030;-83
2023/12/02 13:28:27;;;;;;;6.80;4.68;;;;;;;;;;10414186;28;20036;-83
2023/12/02 13:33:43;;;;;;;8.88;6.40;;;;;;;;;;10410586;28;20033;-83
2023/12/02 13:38:52;;;;;;;8.25;5.43;;;;;;;;;;10415540;28;20032;-85
2023/12/02 13:43:59;;;;;;;10.82;8.15;;;;;;;;;;10432507;28;20079;-86
2023/12/02 13:49:06;;;;;;;7.20;5.40;;;;;;;;;;10412062;28;20120;-86
2023/12/02 13:54:13;;;;;;;9.00;6.20;;;;;;;;;;10414020;28;20036;-86
2023/12/02 13:59:17;;;;;;;8.07;5.53;;;;;;;;;;10414073;28;20029;-85
2023/12/02 14:04:29;;;;;;;5.82;4.43;;;;;;;;;;10414503;28;20033;-86
2023/12/02 14:09:36;;;;;;;8.13;5.50;;;;;;;;;;10413753;28;20030;-86
2023/12/02 14:14:46;;;;;;;6.20;4.38;;;;;;;;;;10413744;28;20041;-86
2023/12/02 14:19:56;;;;;;;6.30;4.63;;;;;;;;;;10411995;28;20029;-86
2023/12/02 14:25:13;;;;;;;4.43;3.50;;;;;;;;;;10409696;28;20120;-86
2023/12/02 14:30:14;;;;;;;4.78;3.70;;;;;;;;;;10411276;28;20029;-86
2023/12/02 14:35:15;;;;;;;4.68;3.80;;;;;;;;;;10408176;28;20031;-86
2023/12/02 14:40:32;;;;;;;6.97;5.18;;;;;;;;;;10406450;28;20093;-86
2023/12/02 14:45:33;;;;;;;6.53;5.15;;;;;;;;;;10417065;28;20119;-85
2023/12/02 14:50:46;;;;;;;7.72;5.38;;;;;;;;;;10442347;28;20389;-86
2023/12/02 14:55:47;;;;;;;7.10;4.82;;;;;;;;;;10407476;28;20595;-86
2023/12/02 15:00:55;;;;;;;9.52;6.88;;;;;;;;;;10406405;28;20167;-85
2023/12/02 15:06:00;;;;;;;5.60;3.97;;;;;;;;;;10414405;28;20505;-86
2023/12/02 15:11:02;;;;;;;6.07;4.50;;;;;;;;;;10435146;28;20017;-86
2023/12/02 15:16:07;;;;;;;3.95;3.10;;;;;;;;;;10436843;28;20021;-84
2023/12/02 15:21:09;;;;;;;5.85;4.15;;;;;;;;;;10420011;28;20029;-85
2023/12/02 15:26:17;;;;;;;8.20;5.90;;;;;;;;;;10418797;28;20021;-85
2023/12/02 15:31:19;;;;;;;4.72;3.53;;;;;;;;;;10421108;28;20025;-84
2023/12/02 15:36:21;;;;;;;4.78;3.55;;;;;;;;;;10419141;28;20025;-85
2023/12/02 15:41:23;;;;;;;7.88;5.38;;;;;;;;;;10417100;28;20048;-84
2023/12/02 15:46:25;;;;;;;5.82;4.10;;;;;;;;;;10419597;28;20021;-85
2023/12/02 15:51:31;;;;;;;5.68;4.03;;;;;;;;;;10436078;28;20101;-85
2023/12/02 15:56:33;;;;;;;5.10;3.90;;;;;;;;;;10417733;28;20025;-85
2023/12/02 16:01:45;;;;;;;3.88;3.00;;;;;;;;;;10415945;28;20025;-81
2023/12/02 16:06:47;;;;;;;6.00;3.90;;;;;;;;;;10416765;28;20064;-85
2023/12/02 16:11:50;;;;;;;8.48;7.18;;;;;;;;;;10414511;28;20082;-81
2023/12/02 16:16:56;;;;;;;6.40;4.93;;;;;;;;;;10397437;28;20037;-86
2023/12/02 16:21:58;;;;;;;5.25;3.53;;;;;;;;;;10401055;28;20111;-85
2023/12/02 16:26:59;;;;;;;5.43;4.30;;;;;;;;;;10417544;28;20026;-85
2023/12/02 16:32:02;;;;;;;3.97;3.33;;;;;;;;;;10417134;28;20060;-85
2023/12/02 16:37:03;;;;;;;4.93;3.65;;;;;;;;;;10416426;28;20033;-85
2023/12/02 16:42:04;;;;;;;6.18;4.50;;;;;;;;;;10433862;28;20397;-85
2023/12/02 16:47:05;;;;;;;;;;;;;;;;;;10416206;28;20124;-85
2023/12/02 16:52:08;;;;;;;5.00;3.95;;;;;;;;;;10414553;28;19913;-87
2023/12/02 16:57:24;;;;;;;8.98;7.45;;;;;;;;;;10415312;28;20120;-85
2023/12/02 17:02:36;;;;;;;6.90;5.03;;;;;;;;;;10416084;28;20449;-84
2023/12/02 17:07:37;;;;;;;6.65;4.55;;;;;;;;;;10414875;28;20461;-85
2023/12/02 17:12:38;;;;;;;4.22;3.45;;;;;;;;;;10433407;28;20160;-85
2023/12/02 17:17:39;;;;;;;;;;;;;;;;;;10398753;28;20052;-85
2023/12/02 17:22:40;;;;;;;6.45;4.72;;;;;;;;;;10413161;28;19909;-85
2023/12/02 17:27:42;;;;;;;8.02;5.03;;;;;;;;;;10413707;28;20029;-85
2023/12/02 17:32:43;;;;;;;;;;;;;;;;;;10415276;28;20076;-86
2023/12/02 17:37:44;;;;;;;5.40;3.88;;;;;;;;;;10418224;28;19905;-86
2023/12/02 17:42:45;;;;;;;7.43;5.85;;;;;;;;;;10414475;28;20037;-84
2023/12/02 17:47:46;;;;;;;;;;;;;;;;;;10433784;28;20088;-83
2023/12/02 17:52:47;;;;;;;10.88;8.52;;;;;;;;;;10454019;28;19939;-87
2023/12/02 17:57:48;;;;;;;11.18;7.72;;;;;;;;;;10410154;28;20072;-88
2023/12/02 18:02:49;;;;;;;8.82;7.13;;;;;;;;;;10403696;28;20393;-88
2023/12/02 18:07:50;;;;;;;;;;;;;;;;;;10403512;28;20087;-87
2023/12/02 18:12:51;;;;;;;7.18;5.30;;;;;;;;;;10406169;28;20388;-87
2023/12/02 18:17:53;;;;;;;10.35;8.20;;;;;;;;;;10424229;28;20022;-87
2023/12/02 18:22:54;;;;;;;8.68;6.55;;;;;;;;;;10405316;28;20086;-87
2023/12/02 18:27:56;;;;;;;7.68;6.10;;;;;;;;;;10395407;28;20519;-86
2023/12/02 18:33:01;;;;;;;6.47;5.18;;;;;;;;;;10408426;28;20083;-84
2023/12/02 18:38:12;;;;;;;13.95;10.82;;;;;;;;;;10403955;28;20033;-86
2023/12/02 18:43:13;;;;;;;15.63;10.85;;;;;;;;;;10404210;28;20080;-83
2023/12/02 18:48:18;;;;;;;8.70;6.10;;;;;;;;;;10411990;28;20045;-83
2023/12/02 18:53:21;;;;;;;6.20;4.78;;;;;;;;;;10410389;28;20042;-86
2023/12/02 18:58:24;;;;;;;10.27;7.93;;;;;;;;;;10407486;28;20052;-88
2023/12/02 19:03:25;;;;;;;6.25;5.03;;;;;;;;;;10407048;28;20481;-86
2023/12/02 19:08:40;;;;;;;11.50;8.48;;;;;;;;;;10426536;28;20030;-87
2023/12/02 19:13:53;;;;;;;21.08;15.45;;;;;;;;;;10408454;28;20042;-87
2023/12/02 19:18:57;;;;;;;10.15;7.68;;;;;;;;;;10410086;28;20072;-87
2023/12/02 19:23:58;;;;;;;11.32;8.70;;;;;;;;;;10407963;28;20106;-83
2023/12/02 19:28:59;;;;;;;;;;;;;;;;;;10412490;28;20084;-84
2023/12/02 19:34:00;;;;;;;7.30;5.85;;;;;;;;;;10429118;28;20330;-83
2023/12/02 19:39:01;;;;;;;9.32;6.75;;;;;;;;;;10410209;28;20030;-83
2023/12/02 19:44:02;;;;;;;7.30;5.85;;;;;;;;;;10410482;28;20060;-85
2023/12/02 19:49:03;;;;;;;16.00;12.15;;;;;;;;;;10410746;28;20120;-84
2023/12/02 19:54:04;;;;;;;17.85;12.80;;;;;;;;;;10434328;28;20053;-84
2023/12/02 19:59:05;;;;;;;8.98;7.03;;;;;;;;;;10415267;28;20128;-83
2023/12/02 20:04:06;;;;;;;9.00;7.13;;;;;;;;;;10418287;28;20478;-84
2023/12/02 20:09:08;;;;;;;7.40;5.90;;;;;;;;;;10414552;28;20032;-83
